createdAt,value
2018-09-29T00:00:41.497Z,100.00
2018-09-29T00:03:09.786Z,100.00
2018-09-29T00:05:38.209Z,100.00
2018-09-29T00:08:06.731Z,100.00
2018-09-29T00:10:35.423Z,100.00
2018-09-29T00:13:03.633Z,100.00
2018-09-29T00:15:31.811Z,97.81
2018-09-29T00:17:59.989Z,94.11
2018-09-29T00:20:28.145Z,95.75
2018-09-29T00:22:56.302Z,94.32
2018-09-29T00:25:24.515Z,92.97
2018-09-29T00:27:52.840Z,93.23
2018-09-29T00:30:21.062Z,93.01
2018-09-29T00:32:49.242Z,94.31
2018-09-29T00:35:17.518Z,94.93
2018-09-29T00:37:45.686Z,94.86
2018-09-29T00:40:13.916Z,93.75
2018-09-29T00:42:42.126Z,94.89
2018-09-29T00:45:10.301Z,95.71
2018-09-29T00:47:38.477Z,95.11
2018-09-29T00:50:06.658Z,94.14
2018-09-29T00:52:34.825Z,93.23
2018-09-29T00:55:03.022Z,92.54
2018-09-29T00:57:31.433Z,92.60
2018-09-29T00:59:59.605Z,91.61
2018-09-29T01:02:27.785Z,92.15
2018-09-29T01:04:55.997Z,90.62
2018-09-29T01:07:24.152Z,90.31
2018-09-29T01:09:52.329Z,91.10
2018-09-29T01:12:20.753Z,89.32
2018-09-29T01:14:49.001Z,89.60
2018-09-29T01:17:17.433Z,91.17
2018-09-29T01:19:45.809Z,91.46
2018-09-29T01:22:14.033Z,91.02
2018-09-29T01:24:42.210Z,90.14
2018-09-29T01:27:10.381Z,90.86
2018-09-29T01:29:38.579Z,90.91
2018-09-29T01:32:06.848Z,91.25
2018-09-29T01:34:35.112Z,91.32
2018-09-29T01:37:03.280Z,92.76
2018-09-29T01:39:31.465Z,92.81
2018-09-29T01:41:59.630Z,93.32
2018-09-29T01:44:27.788Z,93.21
2018-09-29T01:46:55.950Z,94.81
2018-09-29T01:49:24.468Z,95.10
2018-09-29T01:51:52.656Z,95.37
2018-09-29T01:54:20.834Z,95.76
2018-09-29T01:56:49.095Z,97.45
2018-09-29T01:59:17.255Z,97.60
2018-09-29T02:01:45.753Z,98.16
2018-09-29T02:04:14.017Z,100.00
2018-09-29T02:06:42.213Z,100.00
2018-09-29T02:09:10.493Z,100.00
2018-09-29T02:11:38.657Z,100.00
2018-09-29T02:14:06.816Z,100.00
2018-09-29T02:16:35.340Z,100.00
2018-09-29T02:19:03.604Z,100.00
2018-09-29T02:21:31.772Z,100.00
2018-09-29T02:24:00.273Z,100.00
2018-09-29T02:26:28.437Z,100.00
2018-09-29T02:28:56.709Z,100.00
2018-09-29T02:31:24.834Z,100.00
2018-09-29T02:33:53.020Z,100.00
2018-09-29T02:36:21.200Z,100.00
2018-09-29T02:38:49.392Z,100.00
2018-09-29T02:41:17.652Z,100.00
2018-09-29T02:43:45.810Z,100.00
2018-09-29T02:46:14.014Z,100.00
2018-09-29T02:48:42.172Z,100.00
2018-09-29T02:51:10.338Z,100.00
2018-09-29T02:53:38.538Z,100.00
2018-09-29T02:56:06.742Z,100.00
2018-09-29T02:58:34.902Z,100.00
2018-09-29T03:01:03.305Z,100.00
2018-09-29T03:03:31.460Z,100.00
2018-09-29T03:05:59.619Z,100.00
2018-09-29T03:08:27.817Z,100.00
2018-09-29T03:10:56.069Z,100.00
2018-09-29T03:13:24.333Z,100.00
2018-09-29T03:15:52.493Z,100.00
2018-09-29T03:18:20.645Z,100.00
2018-09-29T03:20:48.805Z,100.00
2018-09-29T03:23:17.018Z,100.00
2018-09-29T03:25:45.141Z,100.00
2018-09-29T03:28:13.601Z,100.00
2018-09-29T03:30:41.777Z,100.00
2018-09-29T03:33:09.953Z,100.00
2018-09-29T03:35:38.196Z,100.00
2018-09-29T03:38:06.683Z,100.00
2018-09-29T03:40:34.857Z,100.00
2018-09-29T03:43:03.092Z,100.00
2018-09-29T03:45:31.637Z,100.00
2018-09-29T03:47:59.896Z,100.00
2018-09-29T03:50:31.012Z,100.00
2018-09-29T03:52:59.188Z,100.00
2018-09-29T03:55:27.349Z,100.00
2018-09-29T03:57:55.500Z,100.00
2018-09-29T04:00:23.683Z,100.00
2018-09-29T04:02:51.958Z,100.00
2018-09-29T04:05:20.174Z,100.00
2018-09-29T04:07:48.341Z,99.22
2018-09-29T04:10:16.493Z,98.06
2018-09-29T04:12:44.697Z,98.54
2018-09-29T04:15:12.875Z,97.44
2018-09-29T04:17:41.021Z,95.26
2018-09-29T04:20:09.509Z,95.79
2018-09-29T04:22:37.685Z,95.41
2018-09-29T04:25:06.002Z,95.13
2018-09-29T04:27:34.171Z,93.95
2018-09-29T04:30:02.333Z,94.80
2018-09-29T04:32:30.502Z,95.63
2018-09-29T04:34:58.741Z,95.34
2018-09-29T04:37:26.900Z,93.83
2018-09-29T04:39:55.068Z,96.07
2018-09-29T04:42:23.301Z,96.39
2018-09-29T04:44:51.480Z,95.30
2018-09-29T04:47:19.742Z,94.69
2018-09-29T04:49:47.919Z,96.08
2018-09-29T04:52:16.112Z,98.62
2018-09-29T04:54:44.367Z,98.02
2018-09-29T04:57:12.544Z,100.00
2018-09-29T04:59:40.754Z,100.00
2018-09-29T05:02:08.911Z,99.72
2018-09-29T05:04:37.176Z,100.00
2018-09-29T05:07:05.516Z,100.00
2018-09-29T05:09:33.702Z,100.00
2018-09-29T05:12:01.880Z,100.00
2018-09-29T05:14:30.099Z,100.00
2018-09-29T05:16:58.258Z,100.00
2018-09-29T05:19:26.529Z,100.00
2018-09-29T05:21:54.717Z,100.00
2018-09-29T05:24:22.893Z,100.00
2018-09-29T05:26:51.102Z,100.00
2018-09-29T05:29:19.277Z,100.00
2018-09-29T05:31:47.497Z,100.00
2018-09-29T05:34:15.653Z,100.00
2018-09-29T05:36:43.821Z,100.00
2018-09-29T05:39:12.057Z,100.00
2018-09-29T05:41:40.349Z,100.00
2018-09-29T05:44:08.585Z,100.00
2018-09-29T05:46:36.746Z,100.00
2018-09-29T05:49:05.146Z,100.00
2018-09-29T05:51:33.473Z,100.00
2018-09-29T05:54:01.733Z,100.00
2018-09-29T05:56:29.853Z,100.00
2018-09-29T05:58:58.078Z,100.00
2018-09-29T06:01:26.296Z,100.00
2018-09-29T06:03:54.476Z,100.00
2018-09-29T06:06:22.751Z,100.00
2018-09-29T06:08:50.928Z,100.00
2018-09-29T06:11:19.124Z,100.00
2018-09-29T06:13:47.284Z,99.19
2018-09-29T06:16:15.451Z,96.33
2018-09-29T06:18:43.626Z,96.36
2018-09-29T06:21:11.797Z,98.41
2018-09-29T06:23:39.994Z,97.97
2018-09-29T06:26:08.244Z,93.50
2018-09-29T06:28:36.436Z,92.78
2018-09-29T06:31:04.590Z,89.76
2018-09-29T06:33:32.774Z,88.30
2018-09-29T06:36:01.019Z,88.53
2018-09-29T06:38:29.174Z,86.81
2018-09-29T06:40:57.426Z,87.65
2018-09-29T06:43:25.533Z,86.51
2018-09-29T06:45:53.686Z,85.69
2018-09-29T06:48:22.966Z,86.21
2018-09-29T06:50:51.237Z,85.04
2018-09-29T06:53:19.495Z,85.35
2018-09-29T06:55:47.681Z,82.49
2018-09-29T06:58:15.862Z,80.34
2018-09-29T07:00:44.333Z,79.46
2018-09-29T07:03:12.661Z,83.51
2018-09-29T07:05:40.841Z,81.75
2018-09-29T07:08:09.012Z,79.73
2018-09-29T07:10:37.221Z,74.54
2018-09-29T07:13:06.142Z,74.82
2018-09-29T07:15:34.371Z,74.45
2018-09-29T07:18:02.592Z,72.25
2018-09-29T07:20:31.196Z,71.13
2018-09-29T07:22:59.364Z,69.69
2018-09-29T07:25:27.602Z,69.84
2018-09-29T07:27:55.780Z,69.71
2018-09-29T07:30:23.971Z,68.40
2018-09-29T07:32:52.266Z,66.39
2018-09-29T07:35:20.458Z,66.47
2018-09-29T07:37:48.638Z,63.83
2018-09-29T07:40:16.811Z,63.78
2018-09-29T07:42:45.034Z,63.41
2018-09-29T07:45:13.229Z,63.33
2018-09-29T07:47:41.390Z,63.45
2018-09-29T07:50:09.672Z,63.80
2018-09-29T07:52:37.933Z,62.92
2018-09-29T07:55:06.110Z,61.61
2018-09-29T07:57:34.293Z,61.28
2018-09-29T08:00:02.856Z,61.94
2018-09-29T08:02:31.019Z,60.34
2018-09-29T08:04:59.505Z,60.48
2018-09-29T08:07:27.660Z,57.56
2018-09-29T08:09:55.826Z,58.83
2018-09-29T08:12:24.097Z,59.14
2018-09-29T08:14:52.144Z,58.24
2018-09-29T08:17:20.394Z,59.62
2018-09-29T08:19:48.814Z,57.78
2018-09-29T08:22:16.971Z,56.03
2018-09-29T08:24:45.226Z,57.41
2018-09-29T08:27:13.414Z,57.67
2018-09-29T08:29:41.663Z,57.13
2018-09-29T08:32:09.825Z,57.67
2018-09-29T08:34:38.017Z,55.31
2018-09-29T08:37:06.352Z,54.53
2018-09-29T08:39:34.499Z,53.97
2018-09-29T08:42:02.777Z,52.57
2018-09-29T08:44:31.032Z,51.04
2018-09-29T08:46:59.511Z,51.94
2018-09-29T08:49:27.741Z,49.79
2018-09-29T08:51:55.905Z,49.06
2018-09-29T08:54:24.065Z,51.67
2018-09-29T08:56:52.253Z,52.26
2018-09-29T08:59:20.445Z,50.78
2018-09-29T09:01:48.640Z,50.29
2018-09-29T09:04:16.841Z,46.19
2018-09-29T09:06:45.004Z,45.27
2018-09-29T09:09:13.183Z,44.89
2018-09-29T09:11:41.351Z,48.62
2018-09-29T09:14:09.741Z,47.57
2018-09-29T09:16:37.905Z,46.03
2018-09-29T09:19:06.185Z,45.04
2018-09-29T09:21:34.370Z,45.72
2018-09-29T09:24:02.613Z,45.36
2018-09-29T09:26:30.810Z,42.74
2018-09-29T09:28:58.986Z,45.07
2018-09-29T09:31:27.171Z,47.53
2018-09-29T09:33:55.383Z,46.70
2018-09-29T09:36:23.592Z,45.93
2018-09-29T09:38:51.807Z,46.34
2018-09-29T09:41:20.101Z,43.93
2018-09-29T09:43:48.318Z,42.80
2018-09-29T09:46:16.588Z,44.91
2018-09-29T09:48:45.009Z,42.94
2018-09-29T09:51:13.257Z,42.99
2018-09-29T09:53:41.409Z,42.94
2018-09-29T09:56:09.638Z,42.20
2018-09-29T09:58:38.341Z,42.18
2018-09-29T10:01:11.749Z,41.47
2018-09-29T10:03:39.913Z,41.63
2018-09-29T10:06:08.089Z,41.31
2018-09-29T10:08:36.271Z,42.28
2018-09-29T10:11:04.485Z,43.17
2018-09-29T10:13:32.643Z,39.64
2018-09-29T10:16:00.829Z,40.87
2018-09-29T10:18:28.988Z,41.25
2018-09-29T10:20:57.153Z,39.30
2018-09-29T10:23:25.925Z,38.28
2018-09-29T10:25:54.240Z,38.87
2018-09-29T10:28:22.484Z,38.20
2018-09-29T10:30:50.920Z,33.78
2018-09-29T10:33:19.102Z,30.59
2018-09-29T10:35:47.284Z,27.65
2018-09-29T10:38:15.449Z,24.52
2018-09-29T10:40:43.677Z,22.03
2018-09-29T10:43:11.874Z,19.97
2018-09-29T10:45:40.117Z,19.14
2018-09-29T10:48:08.548Z,16.84
2018-09-29T10:50:36.723Z,16.07
2018-09-29T10:53:05.396Z,16.90
2018-09-29T10:55:33.575Z,16.12
2018-09-29T10:58:01.829Z,15.73
2018-09-29T11:00:30.093Z,15.85
2018-09-29T11:02:58.275Z,16.60
2018-09-29T11:05:26.479Z,15.53
2018-09-29T11:07:54.844Z,13.73
2018-09-29T11:10:23.011Z,13.65
2018-09-29T11:12:51.177Z,13.38
2018-09-29T11:15:19.365Z,13.28
2018-09-29T11:17:47.532Z,13.06
2018-09-29T11:20:15.716Z,12.29
2018-09-29T11:22:43.896Z,12.75
2018-09-29T11:25:12.489Z,12.69
2018-09-29T11:27:40.715Z,12.66
2018-09-29T11:30:08.912Z,12.65
2018-09-29T11:32:37.080Z,12.34
2018-09-29T11:35:05.248Z,11.00
2018-09-29T11:37:33.457Z,11.41
2018-09-29T11:40:01.622Z,11.04
2018-09-29T11:42:29.892Z,11.34
2018-09-29T11:44:58.094Z,10.53
2018-09-29T11:47:29.183Z,10.87
2018-09-29T11:49:57.384Z,11.64
2018-09-29T11:52:25.565Z,13.16
2018-09-29T11:54:53.745Z,12.90
2018-09-29T11:57:21.909Z,12.31
2018-09-29T11:59:50.093Z,11.04
2018-09-29T12:02:18.332Z,10.56
2018-09-29T12:04:46.557Z,10.03
2018-09-29T12:07:14.760Z,10.79
2018-09-29T12:09:42.935Z,10.33
2018-09-29T12:12:11.116Z,10.50
2018-09-29T12:14:39.326Z,10.41
2018-09-29T12:17:07.836Z,10.23
2018-09-29T12:19:36.337Z,9.71
2018-09-29T12:22:04.508Z,9.58
2018-09-29T12:24:32.746Z,9.81
2018-09-29T12:27:01.179Z,9.12
2018-09-29T12:29:29.481Z,8.59
2018-09-29T12:31:57.660Z,8.58
2018-09-29T12:34:26.014Z,9.38
2018-09-29T12:36:54.218Z,10.12
2018-09-29T12:39:22.357Z,9.15
2018-09-29T12:41:50.570Z,8.16
2018-09-29T12:44:18.836Z,7.99
2018-09-29T12:46:46.917Z,8.96
2018-09-29T12:49:15.097Z,9.00
2018-09-29T12:51:43.288Z,9.49
2018-09-29T12:54:11.535Z,9.00
2018-09-29T12:56:39.737Z,9.11
2018-09-29T12:59:07.909Z,8.80
2018-09-29T13:01:36.109Z,8.04
2018-09-29T13:04:04.294Z,7.70
2018-09-29T13:06:32.515Z,10.48
2018-09-29T13:09:00.717Z,9.18
2018-09-29T13:11:28.965Z,8.71
2018-09-29T13:13:57.120Z,7.97
2018-09-29T13:16:25.265Z,7.74
2018-09-29T13:18:53.497Z,7.60
2018-09-29T13:21:21.678Z,7.59
2018-09-29T13:23:49.867Z,7.51
2018-09-29T13:26:18.041Z,7.77
2018-09-29T13:28:46.280Z,7.16
2018-09-29T13:31:14.461Z,7.23
2018-09-29T13:33:42.633Z,6.99
2018-09-29T13:36:14.954Z,5.98
2018-09-29T13:38:43.132Z,6.41
2018-09-29T13:41:11.289Z,6.22
2018-09-29T13:43:39.486Z,6.53
2018-09-29T13:46:07.670Z,6.44
2018-09-29T13:48:36.908Z,6.76
2018-09-29T13:51:05.082Z,6.73
2018-09-29T13:53:33.641Z,6.53
2018-09-29T13:56:02.093Z,6.32
2018-09-29T13:58:30.269Z,6.33
2018-09-29T14:00:58.573Z,6.07
2018-09-29T14:03:27.097Z,6.21
2018-09-29T14:05:55.349Z,6.17
2018-09-29T14:08:23.572Z,6.11
2018-09-29T14:10:51.725Z,6.48
2018-09-29T14:13:19.972Z,6.01
2018-09-29T14:15:48.272Z,6.40
2018-09-29T14:18:16.517Z,5.94
2018-09-29T14:20:44.652Z,5.82
2018-09-29T14:23:13.024Z,6.72
2018-09-29T14:25:41.292Z,6.72
2018-09-29T14:28:09.458Z,7.03
2018-09-29T14:30:37.634Z,6.80
2018-09-29T14:33:06.177Z,6.56
2018-09-29T14:35:34.330Z,6.66
2018-09-29T14:38:03.169Z,7.26
2018-09-29T14:40:31.377Z,10.82
2018-09-29T14:42:59.529Z,12.99
2018-09-29T14:45:27.784Z,13.75
2018-09-29T14:47:55.958Z,14.93
2018-09-29T14:50:24.220Z,16.67
2018-09-29T14:52:52.642Z,18.64
2018-09-29T14:55:20.808Z,18.96
2018-09-29T14:57:49.056Z,20.33
2018-09-29T15:00:17.236Z,21.62
2018-09-29T15:02:45.438Z,21.18
2018-09-29T15:05:13.610Z,22.18
2018-09-29T15:07:41.855Z,22.91
2018-09-29T15:10:10.186Z,23.63
2018-09-29T15:12:38.396Z,23.93
2018-09-29T15:15:07.349Z,24.64
2018-09-29T15:17:35.662Z,24.48
2018-09-29T15:20:03.877Z,24.06
2018-09-29T15:22:32.671Z,24.36
2018-09-29T15:25:00.846Z,24.79
2018-09-29T15:27:29.211Z,24.40
2018-09-29T15:29:57.469Z,25.64
2018-09-29T15:32:25.692Z,25.59
2018-09-29T15:34:53.905Z,26.37
2018-09-29T15:37:22.138Z,27.15
2018-09-29T15:39:50.306Z,28.38
2018-09-29T15:42:18.502Z,29.17
2018-09-29T15:44:46.659Z,28.22
2018-09-29T15:47:14.812Z,28.66
2018-09-29T15:49:43.052Z,28.02
2018-09-29T15:52:11.364Z,29.22
2018-09-29T15:54:39.706Z,28.97
2018-09-29T15:57:08.620Z,25.88
2018-09-29T15:59:36.810Z,26.09
2018-09-29T16:02:04.998Z,27.05
2018-09-29T16:04:33.222Z,27.92
2018-09-29T16:07:01.508Z,29.04
2018-09-29T16:09:29.668Z,28.50
2018-09-29T16:11:57.839Z,29.36
2018-09-29T16:14:26.033Z,29.78
2018-09-29T16:16:54.313Z,30.50
2018-09-29T16:19:22.768Z,30.71
2018-09-29T16:21:51.347Z,31.97
2018-09-29T16:24:19.521Z,32.63
2018-09-29T16:26:47.673Z,33.38
2018-09-29T16:29:16.201Z,34.39
2018-09-29T16:31:44.459Z,35.76
2018-09-29T16:34:13.009Z,37.01
2018-09-29T16:36:41.179Z,38.03
2018-09-29T16:39:11.569Z,38.89
2018-09-29T16:41:39.713Z,39.78
2018-09-29T16:44:07.911Z,40.65
2018-09-29T16:46:36.066Z,41.71
2018-09-29T16:49:04.341Z,42.26
2018-09-29T16:51:33.081Z,42.97
2018-09-29T16:54:01.305Z,43.70
2018-09-29T16:56:29.509Z,45.02
2018-09-29T16:58:57.783Z,45.35
2018-09-29T17:01:26.121Z,44.63
2018-09-29T17:03:54.320Z,45.25
2018-09-29T17:06:22.489Z,46.49
2018-09-29T17:08:50.661Z,47.90
2018-09-29T17:11:18.816Z,48.50
2018-09-29T17:13:47.037Z,48.92
2018-09-29T17:16:15.279Z,50.70
2018-09-29T17:18:43.749Z,53.93
2018-09-29T17:21:11.946Z,54.98
2018-09-29T17:23:40.107Z,55.91
2018-09-29T17:26:08.446Z,60.66
2018-09-29T17:28:36.638Z,60.40
2018-09-29T17:31:04.930Z,62.51
2018-09-29T17:33:33.214Z,63.84
2018-09-29T17:36:01.399Z,67.88
2018-09-29T17:38:29.558Z,69.53
2018-09-29T17:40:57.730Z,72.15
2018-09-29T17:43:25.933Z,74.77
2018-09-29T17:45:54.100Z,72.37
2018-09-29T17:48:23.396Z,71.31
2018-09-29T17:50:51.775Z,75.07
2018-09-29T17:53:20.030Z,75.75
2018-09-29T17:55:48.205Z,75.86
2018-09-29T17:58:16.397Z,78.50
2018-09-29T18:00:44.657Z,78.82
2018-09-29T18:03:12.826Z,78.17
2018-09-29T18:05:41.072Z,79.59
2018-09-29T18:08:09.246Z,79.96
2018-09-29T18:10:37.482Z,80.05
2018-09-29T18:13:05.801Z,81.18
2018-09-29T18:15:33.958Z,82.16
2018-09-29T18:18:02.182Z,83.92
2018-09-29T18:20:30.366Z,85.74
2018-09-29T18:22:58.619Z,85.47
2018-09-29T18:25:26.825Z,84.31
2018-09-29T18:27:55.035Z,84.17
2018-09-29T18:30:23.250Z,81.78
2018-09-29T18:32:51.414Z,81.79
2018-09-29T18:35:19.718Z,82.75
2018-09-29T18:37:47.968Z,84.33
2018-09-29T18:40:16.140Z,86.56
2018-09-29T18:42:44.491Z,87.69
2018-09-29T18:45:12.678Z,90.42
2018-09-29T18:47:40.961Z,91.55
2018-09-29T18:50:09.209Z,94.70
2018-09-29T18:52:37.434Z,95.12
2018-09-29T18:55:05.677Z,98.82
2018-09-29T18:57:33.948Z,100.00
2018-09-29T19:00:02.164Z,100.00
2018-09-29T19:02:30.377Z,100.00
2018-09-29T19:04:58.567Z,100.00
2018-09-29T19:07:26.745Z,100.00
2018-09-29T19:09:55.056Z,100.00
2018-09-29T19:12:23.556Z,100.00
2018-09-29T19:14:51.742Z,100.00
2018-09-29T19:17:19.905Z,100.00
2018-09-29T19:19:48.116Z,100.00
2018-09-29T19:22:16.293Z,100.00
2018-09-29T19:24:44.480Z,100.00
2018-09-29T19:27:12.700Z,100.00
2018-09-29T19:29:41.120Z,100.00
2018-09-29T19:32:09.316Z,100.00
2018-09-29T19:34:37.555Z,100.00
2018-09-29T19:37:05.726Z,100.00
2018-09-29T19:39:33.987Z,100.00
2018-09-29T19:42:08.475Z,100.00
2018-09-29T19:44:36.650Z,100.00
2018-09-29T19:47:04.814Z,100.00
2018-09-29T19:49:33.019Z,100.00
2018-09-29T19:52:01.297Z,100.00
2018-09-29T19:54:29.573Z,100.00
2018-09-29T19:56:57.857Z,100.00
2018-09-29T19:59:26.076Z,100.00
2018-09-29T20:01:54.287Z,100.00
2018-09-29T20:04:22.481Z,100.00
2018-09-29T20:06:50.662Z,100.00
2018-09-29T20:09:18.865Z,100.00
2018-09-29T20:11:47.212Z,100.00
2018-09-29T20:14:15.489Z,100.00
2018-09-29T20:16:43.845Z,100.00
2018-09-29T20:19:11.921Z,100.00
2018-09-29T20:21:40.085Z,100.00
2018-09-29T20:24:08.249Z,100.00
2018-09-29T20:26:36.766Z,100.00
2018-09-29T20:29:04.936Z,100.00
2018-09-29T20:31:33.217Z,100.00
2018-09-29T20:34:01.402Z,100.00
2018-09-29T20:36:29.642Z,100.00
2018-09-29T20:38:57.811Z,100.00
2018-09-29T20:41:26.160Z,100.00
2018-09-29T20:43:54.336Z,100.00
2018-09-29T20:46:22.505Z,100.00
2018-09-29T20:48:50.750Z,100.00
2018-09-29T20:51:19.199Z,100.00
2018-09-29T20:53:47.381Z,100.00
2018-09-29T20:56:16.116Z,100.00
2018-09-29T20:58:44.353Z,100.00
2018-09-29T21:01:12.631Z,100.00
2018-09-29T21:03:41.029Z,100.00
2018-09-29T21:06:10.182Z,100.00
2018-09-29T21:08:38.449Z,100.00
2018-09-29T21:11:06.646Z,100.00
2018-09-29T21:13:35.023Z,100.00
2018-09-29T21:16:03.189Z,100.00
2018-09-29T21:18:31.739Z,100.00
2018-09-29T21:21:00.297Z,100.00
2018-09-29T21:23:28.519Z,100.00
2018-09-29T21:25:56.688Z,100.00
2018-09-29T21:28:24.846Z,100.00
2018-09-29T21:30:53.016Z,100.00
2018-09-29T21:33:21.196Z,100.00
2018-09-29T21:35:50.396Z,100.00
2018-09-29T21:38:18.888Z,100.00
2018-09-29T21:40:47.057Z,100.00
2018-09-29T21:43:15.284Z,100.00
2018-09-29T21:45:43.500Z,100.00
2018-09-29T21:48:11.716Z,100.00
2018-09-29T21:50:40.009Z,100.00
2018-09-29T21:53:08.474Z,100.00
2018-09-29T21:55:36.637Z,100.00
2018-09-29T21:58:04.821Z,100.00
2018-09-29T22:00:38.371Z,100.00
2018-09-29T22:03:06.849Z,100.00
2018-09-29T22:05:36.043Z,100.00
2018-09-29T22:08:05.451Z,100.00
2018-09-29T22:10:34.699Z,100.00
2018-09-29T22:13:04.170Z,100.00
2018-09-29T22:15:33.215Z,100.00
2018-09-29T22:18:02.393Z,100.00
2018-09-29T22:20:31.485Z,100.00
2018-09-29T22:23:00.760Z,100.00
2018-09-29T22:25:30.910Z,100.00
2018-09-29T22:27:59.069Z,100.00
2018-09-29T22:30:27.246Z,100.00
2018-09-29T22:32:55.663Z,100.00
2018-09-29T22:35:23.950Z,100.00
2018-09-29T22:37:52.287Z,100.00
2018-09-29T22:40:20.474Z,100.00
2018-09-29T22:42:48.731Z,100.00
2018-09-29T22:45:16.904Z,100.00
2018-09-29T22:47:45.068Z,100.00
2018-09-29T22:50:13.228Z,100.00
2018-09-29T22:52:41.415Z,100.00
2018-09-29T22:55:09.594Z,100.00
2018-09-29T22:57:38.096Z,100.00
2018-09-29T23:00:06.200Z,100.00
2018-09-29T23:02:34.357Z,100.00
2018-09-29T23:05:02.588Z,100.00
2018-09-29T23:07:30.747Z,100.00
2018-09-29T23:09:58.927Z,100.00
2018-09-29T23:12:27.114Z,100.00
2018-09-29T23:14:55.323Z,100.00
2018-09-29T23:17:23.489Z,100.00
2018-09-29T23:19:51.665Z,100.00
2018-09-29T23:22:19.849Z,100.00
2018-09-29T23:24:48.074Z,100.00
2018-09-29T23:27:16.229Z,100.00
2018-09-29T23:29:45.129Z,100.00
2018-09-29T23:32:13.316Z,100.00
2018-09-29T23:34:41.466Z,100.00
2018-09-29T23:37:09.672Z,100.00
2018-09-29T23:39:37.837Z,100.00
2018-09-29T23:42:05.989Z,100.00
2018-09-29T23:44:34.313Z,100.00
2018-09-29T23:47:02.604Z,100.00
2018-09-29T23:49:30.881Z,100.00
2018-09-29T23:51:59.054Z,100.00
2018-09-29T23:54:27.221Z,100.00
2018-09-29T23:56:55.534Z,100.00
2018-09-29T23:59:23.976Z,100.00
